sensor_id;sensor_type;location;lat;lon;timestamp;temperature;humidity
7216;DHT22;3649;48.798;9.798;2022-12-01T00:01:12;8.80;99.90
7216;DHT22;3649;48.798;9.798;2022-12-01T00:03:39;8.40;99.90
7216;DHT22;3649;48.798;9.798;2022-12-01T00:06:09;8.50;99.90
7216;DHT22;3649;48.798;9.798;2022-12-01T00:08:36;8.50;99.90
7216;DHT22;3649;48.798;9.798;2022-12-01T00:11:06;8.50;99.90
7216;DHT22;3649;48.798;9.798;2022-12-01T00:13:34;8.60;99.90
7216;DHT22;3649;48.798;9.798;2022-12-01T00:16:11;8.70;99.90
7216;DHT22;3649;48.798;9.798;2022-12-01T00:18:38;8.80;99.90
7216;DHT22;3649;48.798;9.798;2022-12-01T00:21:05;8.70;99.90
7216;DHT22;3649;48.798;9.798;2022-12-01T00:23:45;8.70;99.90
7216;DHT22;3649;48.798;9.798;2022-12-01T00:26:14;8.60;99.90
7216;DHT22;3649;48.798;9.798;2022-12-01T00:28:41;8.50;99.90
7216;DHT22;3649;48.798;9.798;2022-12-01T00:31:08;8.40;99.90
7216;DHT22;3649;48.798;9.798;2022-12-01T00:33:36;8.40;99.90
7216;DHT22;3649;48.798;9.798;2022-12-01T00:36:09;8.50;99.90
7216;DHT22;3649;48.798;9.798;2022-12-01T00:38:36;8.40;99.90
7216;DHT22;3649;48.798;9.798;2022-12-01T00:41:04;8.40;99.90
7216;DHT22;3649;48.798;9.798;2022-12-01T00:43:31;8.40;99.90
7216;DHT22;3649;48.798;9.798;2022-12-01T00:45:57;8.40;99.90
7216;DHT22;3649;48.798;9.798;2022-12-01T00:48:24;8.40;99.90
7216;DHT22;3649;48.798;9.798;2022-12-01T00:50:52;8.40;99.90
7216;DHT22;3649;48.798;9.798;2022-12-01T00:53:20;8.40;99.90
7216;DHT22;3649;48.798;9.798;2022-12-01T00:55:47;8.40;99.90
7216;DHT22;3649;48.798;9.798;2022-12-01T00:58:14;8.40;99.90
7216;DHT22;3649;48.798;9.798;2022-12-01T01:00:40;8.40;99.90
7216;DHT22;3649;48.798;9.798;2022-12-01T01:03:09;8.30;99.90
7216;DHT22;3649;48.798;9.798;2022-12-01T01:05:37;9.40;99.90
7216;DHT22;3649;48.798;9.798;2022-12-01T01:08:09;8.50;99.90
7216;DHT22;3649;48.798;9.798;2022-12-01T01:10:40;9.80;99.90
7216;DHT22;3649;48.798;9.798;2022-12-01T01:13:08;8.80;99.90
7216;DHT22;3649;48.798;9.798;2022-12-01T01:15:35;8.60;99.90
7216;DHT22;3649;48.798;9.798;2022-12-01T01:18:02;9.20;99.90
7216;DHT22;3649;48.798;9.798;2022-12-01T01:20:30;8.50;99.90
7216;DHT22;3649;48.798;9.798;2022-12-01T01:22:57;8.50;99.90
7216;DHT22;3649;48.798;9.798;2022-12-01T01:25:24;8.40;99.90
7216;DHT22;3649;48.798;9.798;2022-12-01T01:27:51;8.40;99.90
7216;DHT22;3649;48.798;9.798;2022-12-01T01:30:18;8.40;99.90
7216;DHT22;3649;48.798;9.798;2022-12-01T01:32:45;8.40;99.90
7216;DHT22;3649;48.798;9.798;2022-12-01T01:35:11;8.30;99.90
7216;DHT22;3649;48.798;9.798;2022-12-01T01:37:38;8.30;99.90
7216;DHT22;3649;48.798;9.798;2022-12-01T01:40:06;8.30;99.90
7216;DHT22;3649;48.798;9.798;2022-12-01T01:42:33;8.30;99.90
7216;DHT22;3649;48.798;9.798;2022-12-01T01:45:00;8.20;99.90
7216;DHT22;3649;48.798;9.798;2022-12-01T01:49:56;8.10;99.90
7216;DHT22;3649;48.798;9.798;2022-12-01T01:52:26;8.20;99.90
7216;DHT22;3649;48.798;9.798;2022-12-01T01:54:54;8.20;99.90
7216;DHT22;3649;48.798;9.798;2022-12-01T01:57:27;8.30;99.90
7216;DHT22;3649;48.798;9.798;2022-12-01T02:00:03;9.30;99.90
7216;DHT22;3649;48.798;9.798;2022-12-01T02:02:31;9.20;99.90
7216;DHT22;3649;48.798;9.798;2022-12-01T02:05:00;8.30;99.90
7216;DHT22;3649;48.798;9.798;2022-12-01T02:07:28;8.30;99.90
7216;DHT22;3649;48.798;9.798;2022-12-01T02:09:55;8.20;99.90
7216;DHT22;3649;48.798;9.798;2022-12-01T02:17:52;8.10;99.90
7216;DHT22;3649;48.798;9.798;2022-12-01T02:23:36;8.00;99.90
7216;DHT22;3649;48.798;9.798;2022-12-01T02:26:15;8.10;99.90
7216;DHT22;3649;48.798;9.798;2022-12-01T02:34:45;8.10;99.90
7216;DHT22;3649;48.798;9.798;2022-12-01T02:38:08;8.10;99.90
7216;DHT22;3649;48.798;9.798;2022-12-01T02:43:09;8.30;99.90
7216;DHT22;3649;48.798;9.798;2022-12-01T02:48:22;8.20;99.90
7216;DHT22;3649;48.798;9.798;2022-12-01T02:50:51;8.20;99.90
7216;DHT22;3649;48.798;9.798;2022-12-01T02:53:19;8.30;99.90
7216;DHT22;3649;48.798;9.798;2022-12-01T02:55:48;8.50;99.90
7216;DHT22;3649;48.798;9.798;2022-12-01T02:58:15;8.40;99.90
7216;DHT22;3649;48.798;9.798;2022-12-01T03:01:13;8.30;99.90
7216;DHT22;3649;48.798;9.798;2022-12-01T03:15:05;8.30;99.90
7216;DHT22;3649;48.798;9.798;2022-12-01T03:17:50;8.30;99.90
7216;DHT22;3649;48.798;9.798;2022-12-01T03:20:41;8.30;99.90
7216;DHT22;3649;48.798;9.798;2022-12-01T03:23:13;8.30;99.90
7216;DHT22;3649;48.798;9.798;2022-12-01T03:25:45;8.30;99.90
7216;DHT22;3649;48.798;9.798;2022-12-01T03:28:18;8.20;99.90
7216;DHT22;3649;48.798;9.798;2022-12-01T03:30:50;8.40;99.90
7216;DHT22;3649;48.798;9.798;2022-12-01T03:33:24;8.30;99.90
7216;DHT22;3649;48.798;9.798;2022-12-01T03:36:09;8.30;99.90
7216;DHT22;3649;48.798;9.798;2022-12-01T03:38:38;8.40;99.90
7216;DHT22;3649;48.798;9.798;2022-12-01T03:41:16;8.40;99.90
7216;DHT22;3649;48.798;9.798;2022-12-01T03:44:02;8.40;99.90
7216;DHT22;3649;48.798;9.798;2022-12-01T03:46:50;8.50;99.90
7216;DHT22;3649;48.798;9.798;2022-12-01T03:49:19;8.50;99.90
7216;DHT22;3649;48.798;9.798;2022-12-01T03:57:14;8.30;99.90
7216;DHT22;3649;48.798;9.798;2022-12-01T03:59:44;8.40;99.90
7216;DHT22;3649;48.798;9.798;2022-12-01T04:02:12;8.20;99.90
7216;DHT22;3649;48.798;9.798;2022-12-01T04:04:39;8.20;99.90
7216;DHT22;3649;48.798;9.798;2022-12-01T04:07:07;8.20;99.90
7216;DHT22;3649;48.798;9.798;2022-12-01T04:09:40;8.10;99.90
7216;DHT22;3649;48.798;9.798;2022-12-01T04:12:10;8.20;99.90
7216;DHT22;3649;48.798;9.798;2022-12-01T04:15:01;8.10;99.90
7216;DHT22;3649;48.798;9.798;2022-12-01T04:17:28;8.10;99.90
7216;DHT22;3649;48.798;9.798;2022-12-01T04:19:55;8.00;99.90
7216;DHT22;3649;48.798;9.798;2022-12-01T04:22:23;8.00;99.90
7216;DHT22;3649;48.798;9.798;2022-12-01T04:24:50;8.00;99.90
7216;DHT22;3649;48.798;9.798;2022-12-01T04:27:18;8.10;99.90
7216;DHT22;3649;48.798;9.798;2022-12-01T04:29:45;8.30;99.90
7216;DHT22;3649;48.798;9.798;2022-12-01T04:32:13;8.50;99.90
7216;DHT22;3649;48.798;9.798;2022-12-01T04:34:40;8.30;99.90
7216;DHT22;3649;48.798;9.798;2022-12-01T04:37:08;8.20;99.90
7216;DHT22;3649;48.798;9.798;2022-12-01T04:39:35;8.20;99.90
7216;DHT22;3649;48.798;9.798;2022-12-01T04:42:02;8.00;99.90
7216;DHT22;3649;48.798;9.798;2022-12-01T04:44:30;8.10;99.90
7216;DHT22;3649;48.798;9.798;2022-12-01T04:47:01;8.20;99.90
7216;DHT22;3649;48.798;9.798;2022-12-01T04:49:28;8.00;99.90
7216;DHT22;3649;48.798;9.798;2022-12-01T04:51:56;8.00;99.90
7216;DHT22;3649;48.798;9.798;2022-12-01T04:54:23;8.10;99.90
7216;DHT22;3649;48.798;9.798;2022-12-01T04:56:50;8.00;99.90
7216;DHT22;3649;48.798;9.798;2022-12-01T04:59:17;8.10;99.90
7216;DHT22;3649;48.798;9.798;2022-12-01T05:01:44;8.00;99.90
7216;DHT22;3649;48.798;9.798;2022-12-01T05:04:14;8.10;99.90
7216;DHT22;3649;48.798;9.798;2022-12-01T05:06:41;8.10;99.90
7216;DHT22;3649;48.798;9.798;2022-12-01T05:09:12;8.10;99.90
7216;DHT22;3649;48.798;9.798;2022-12-01T05:11:43;8.10;99.90
7216;DHT22;3649;48.798;9.798;2022-12-01T05:14:11;8.10;99.90
7216;DHT22;3649;48.798;9.798;2022-12-01T05:16:39;8.10;99.90
7216;DHT22;3649;48.798;9.798;2022-12-01T05:19:06;8.10;99.90
7216;DHT22;3649;48.798;9.798;2022-12-01T05:21:52;8.10;99.90
7216;DHT22;3649;48.798;9.798;2022-12-01T05:24:20;8.10;99.90
7216;DHT22;3649;48.798;9.798;2022-12-01T05:26:47;8.10;99.90
7216;DHT22;3649;48.798;9.798;2022-12-01T05:29:14;8.10;99.90
7216;DHT22;3649;48.798;9.798;2022-12-01T05:31:41;8.00;99.90
7216;DHT22;3649;48.798;9.798;2022-12-01T05:34:08;8.00;99.90
7216;DHT22;3649;48.798;9.798;2022-12-01T05:36:35;8.00;99.90
7216;DHT22;3649;48.798;9.798;2022-12-01T05:39:03;8.10;99.90
7216;DHT22;3649;48.798;9.798;2022-12-01T05:41:30;8.10;99.90
7216;DHT22;3649;48.798;9.798;2022-12-01T05:43:57;8.10;99.90
7216;DHT22;3649;48.798;9.798;2022-12-01T05:46:24;8.10;99.90
7216;DHT22;3649;48.798;9.798;2022-12-01T05:48:51;8.10;99.90
7216;DHT22;3649;48.798;9.798;2022-12-01T05:51:18;8.20;99.90
7216;DHT22;3649;48.798;9.798;2022-12-01T05:53:45;8.20;99.90
7216;DHT22;3649;48.798;9.798;2022-12-01T05:56:12;8.20;99.90
7216;DHT22;3649;48.798;9.798;2022-12-01T05:58:39;8.10;99.90
7216;DHT22;3649;48.798;9.798;2022-12-01T06:01:06;8.10;99.90
7216;DHT22;3649;48.798;9.798;2022-12-01T06:03:33;8.10;99.90
7216;DHT22;3649;48.798;9.798;2022-12-01T06:06:00;8.10;99.90
7216;DHT22;3649;48.798;9.798;2022-12-01T06:08:27;8.10;99.90
7216;DHT22;3649;48.798;9.798;2022-12-01T06:10:54;8.10;99.90
7216;DHT22;3649;48.798;9.798;2022-12-01T06:13:21;8.10;99.90
7216;DHT22;3649;48.798;9.798;2022-12-01T06:15:59;8.00;99.90
7216;DHT22;3649;48.798;9.798;2022-12-01T06:18:28;8.00;99.90
7216;DHT22;3649;48.798;9.798;2022-12-01T06:20:55;8.10;99.90
7216;DHT22;3649;48.798;9.798;2022-12-01T06:23:22;8.10;99.90
7216;DHT22;3649;48.798;9.798;2022-12-01T06:25:55;8.10;99.90
7216;DHT22;3649;48.798;9.798;2022-12-01T06:28:22;8.20;99.90
7216;DHT22;3649;48.798;9.798;2022-12-01T06:30:49;8.20;99.90
7216;DHT22;3649;48.798;9.798;2022-12-01T06:33:16;8.30;99.90
7216;DHT22;3649;48.798;9.798;2022-12-01T06:35:43;8.20;99.90
7216;DHT22;3649;48.798;9.798;2022-12-01T06:38:10;8.30;99.90
7216;DHT22;3649;48.798;9.798;2022-12-01T06:40:37;8.20;99.90
7216;DHT22;3649;48.798;9.798;2022-12-01T06:43:04;8.20;99.90
7216;DHT22;3649;48.798;9.798;2022-12-01T06:45:32;8.30;99.90
7216;DHT22;3649;48.798;9.798;2022-12-01T06:47:59;8.30;99.90
7216;DHT22;3649;48.798;9.798;2022-12-01T06:50:25;8.20;99.90
7216;DHT22;3649;48.798;9.798;2022-12-01T06:52:53;8.30;99.90
7216;DHT22;3649;48.798;9.798;2022-12-01T06:55:20;8.30;99.90
7216;DHT22;3649;48.798;9.798;2022-12-01T06:57:48;8.20;99.90
7216;DHT22;3649;48.798;9.798;2022-12-01T07:00:16;8.20;99.90
7216;DHT22;3649;48.798;9.798;2022-12-01T07:02:43;8.20;99.90
7216;DHT22;3649;48.798;9.798;2022-12-01T07:05:10;8.40;99.90
7216;DHT22;3649;48.798;9.798;2022-12-01T07:07:38;8.20;99.90
7216;DHT22;3649;48.798;9.798;2022-12-01T07:10:06;8.20;99.90
7216;DHT22;3649;48.798;9.798;2022-12-01T07:12:33;8.20;99.90
7216;DHT22;3649;48.798;9.798;2022-12-01T07:15:00;8.20;99.90
7216;DHT22;3649;48.798;9.798;2022-12-01T07:17:28;8.20;99.90
7216;DHT22;3649;48.798;9.798;2022-12-01T07:19:55;8.20;99.90
7216;DHT22;3649;48.798;9.798;2022-12-01T07:22:23;9.20;99.90
7216;DHT22;3649;48.798;9.798;2022-12-01T07:24:57;8.10;99.90
7216;DHT22;3649;48.798;9.798;2022-12-01T07:27:28;8.20;99.90
7216;DHT22;3649;48.798;9.798;2022-12-01T07:29:55;8.10;99.90
7216;DHT22;3649;48.798;9.798;2022-12-01T07:32:22;8.20;99.90
7216;DHT22;3649;48.798;9.798;2022-12-01T07:34:51;8.20;99.90
7216;DHT22;3649;48.798;9.798;2022-12-01T07:37:18;8.20;99.90
7216;DHT22;3649;48.798;9.798;2022-12-01T07:39:46;8.20;99.90
7216;DHT22;3649;48.798;9.798;2022-12-01T07:42:13;8.10;99.90
7216;DHT22;3649;48.798;9.798;2022-12-01T07:44:41;8.10;99.90
7216;DHT22;3649;48.798;9.798;2022-12-01T07:47:08;8.10;99.90
7216;DHT22;3649;48.798;9.798;2022-12-01T07:49:35;8.10;99.90
7216;DHT22;3649;48.798;9.798;2022-12-01T07:52:04;8.10;99.90
7216;DHT22;3649;48.798;9.798;2022-12-01T07:54:30;8.10;99.90
7216;DHT22;3649;48.798;9.798;2022-12-01T07:56:57;8.20;99.90
7216;DHT22;3649;48.798;9.798;2022-12-01T07:59:24;9.50;99.90
7216;DHT22;3649;48.798;9.798;2022-12-01T08:01:51;8.10;99.90
7216;DHT22;3649;48.798;9.798;2022-12-01T08:04:18;8.20;99.90
7216;DHT22;3649;48.798;9.798;2022-12-01T08:06:45;8.30;99.90
7216;DHT22;3649;48.798;9.798;2022-12-01T08:09:12;8.30;99.90
7216;DHT22;3649;48.798;9.798;2022-12-01T08:11:39;8.40;99.90
7216;DHT22;3649;48.798;9.798;2022-12-01T08:14:06;8.30;99.90
7216;DHT22;3649;48.798;9.798;2022-12-01T08:16:33;8.70;99.90
7216;DHT22;3649;48.798;9.798;2022-12-01T08:19:00;8.40;99.90
7216;DHT22;3649;48.798;9.798;2022-12-01T08:21:27;8.30;99.90
7216;DHT22;3649;48.798;9.798;2022-12-01T08:23:55;8.30;99.90
7216;DHT22;3649;48.798;9.798;2022-12-01T08:26:24;8.70;99.90
7216;DHT22;3649;48.798;9.798;2022-12-01T08:28:51;8.40;99.90
7216;DHT22;3649;48.798;9.798;2022-12-01T08:31:20;8.30;99.90
7216;DHT22;3649;48.798;9.798;2022-12-01T08:33:48;8.30;99.90
7216;DHT22;3649;48.798;9.798;2022-12-01T08:36:16;8.30;99.90
7216;DHT22;3649;48.798;9.798;2022-12-01T08:38:45;8.40;99.90
7216;DHT22;3649;48.798;9.798;2022-12-01T08:41:13;8.30;99.90
7216;DHT22;3649;48.798;9.798;2022-12-01T08:43:41;8.30;99.90
7216;DHT22;3649;48.798;9.798;2022-12-01T08:46:34;8.30;99.90
7216;DHT22;3649;48.798;9.798;2022-12-01T08:49:03;8.40;99.90
7216;DHT22;3649;48.798;9.798;2022-12-01T08:51:31;8.40;99.90
7216;DHT22;3649;48.798;9.798;2022-12-01T08:53:59;8.40;99.90
7216;DHT22;3649;48.798;9.798;2022-12-01T08:56:35;8.40;99.90
7216;DHT22;3649;48.798;9.798;2022-12-01T08:59:03;8.30;99.90
7216;DHT22;3649;48.798;9.798;2022-12-01T09:01:30;8.40;99.90
7216;DHT22;3649;48.798;9.798;2022-12-01T09:04:00;8.50;99.90
7216;DHT22;3649;48.798;9.798;2022-12-01T09:06:42;8.50;99.90
7216;DHT22;3649;48.798;9.798;2022-12-01T09:09:17;8.50;99.90
7216;DHT22;3649;48.798;9.798;2022-12-01T09:11:45;8.50;99.90
7216;DHT22;3649;48.798;9.798;2022-12-01T09:14:15;8.50;99.90
7216;DHT22;3649;48.798;9.798;2022-12-01T09:16:43;8.50;99.90
7216;DHT22;3649;48.798;9.798;2022-12-01T09:19:11;8.40;99.90
7216;DHT22;3649;48.798;9.798;2022-12-01T09:21:39;8.40;99.90
7216;DHT22;3649;48.798;9.798;2022-12-01T09:24:12;8.40;99.90
7216;DHT22;3649;48.798;9.798;2022-12-01T09:26:41;8.50;99.90
7216;DHT22;3649;48.798;9.798;2022-12-01T09:29:10;8.50;99.90
7216;DHT22;3649;48.798;9.798;2022-12-01T09:31:39;8.50;99.90
7216;DHT22;3649;48.798;9.798;2022-12-01T09:34:11;8.40;99.90
7216;DHT22;3649;48.798;9.798;2022-12-01T09:36:39;8.40;99.90
7216;DHT22;3649;48.798;9.798;2022-12-01T09:39:07;8.50;99.90
7216;DHT22;3649;48.798;9.798;2022-12-01T09:41:51;8.50;99.90
7216;DHT22;3649;48.798;9.798;2022-12-01T09:44:36;8.40;99.90
7216;DHT22;3649;48.798;9.798;2022-12-01T09:47:35;8.40;99.90
7216;DHT22;3649;48.798;9.798;2022-12-01T09:52:52;8.60;99.90
7216;DHT22;3649;48.798;9.798;2022-12-01T09:55:22;8.60;99.90
7216;DHT22;3649;48.798;9.798;2022-12-01T09:57:53;8.50;99.90
7216;DHT22;3649;48.798;9.798;2022-12-01T10:00:29;8.50;99.90
7216;DHT22;3649;48.798;9.798;2022-12-01T10:05:47;8.60;99.90
7216;DHT22;3649;48.798;9.798;2022-12-01T10:08:38;8.60;99.90
7216;DHT22;3649;48.798;9.798;2022-12-01T10:11:34;8.60;99.90
7216;DHT22;3649;48.798;9.798;2022-12-01T10:14:03;8.60;99.90
7216;DHT22;3649;48.798;9.798;2022-12-01T10:25:09;8.70;99.90
7216;DHT22;3649;48.798;9.798;2022-12-01T10:30:26;8.60;99.90
7216;DHT22;3649;48.798;9.798;2022-12-01T10:33:16;8.60;99.90
7216;DHT22;3649;48.798;9.798;2022-12-01T10:35:45;8.80;99.90
7216;DHT22;3649;48.798;9.798;2022-12-01T10:38:29;8.70;99.90
7216;DHT22;3649;48.798;9.798;2022-12-01T10:40:59;8.70;99.90
7216;DHT22;3649;48.798;9.798;2022-12-01T10:43:50;8.70;99.90
7216;DHT22;3649;48.798;9.798;2022-12-01T10:52:50;8.90;99.90
7216;DHT22;3649;48.798;9.798;2022-12-01T10:55:26;8.70;99.90
7216;DHT22;3649;48.798;9.798;2022-12-01T10:57:56;8.80;99.90
7216;DHT22;3649;48.798;9.798;2022-12-01T11:00:33;8.90;99.90
7216;DHT22;3649;48.798;9.798;2022-12-01T11:03:22;8.90;99.90
7216;DHT22;3649;48.798;9.798;2022-12-01T11:05:55;8.90;99.90
7216;DHT22;3649;48.798;9.798;2022-12-01T11:11:03;8.90;99.90
7216;DHT22;3649;48.798;9.798;2022-12-01T11:13:34;8.90;99.90
7216;DHT22;3649;48.798;9.798;2022-12-01T11:16:04;8.90;99.90
7216;DHT22;3649;48.798;9.798;2022-12-01T11:18:34;8.90;99.90
7216;DHT22;3649;48.798;9.798;2022-12-01T11:21:25;9.00;99.90
7216;DHT22;3649;48.798;9.798;2022-12-01T11:23:54;9.00;99.90
7216;DHT22;3649;48.798;9.798;2022-12-01T11:26:30;9.00;99.90
7216;DHT22;3649;48.798;9.798;2022-12-01T11:31:42;9.10;99.90
7216;DHT22;3649;48.798;9.798;2022-12-01T11:34:23;9.10;99.90
7216;DHT22;3649;48.798;9.798;2022-12-01T11:36:53;9.10;99.90
7216;DHT22;3649;48.798;9.798;2022-12-01T11:41:55;9.10;99.90
7216;DHT22;3649;48.798;9.798;2022-12-01T11:44:23;9.10;99.90
7216;DHT22;3649;48.798;9.798;2022-12-01T11:47:16;9.00;99.90
7216;DHT22;3649;48.798;9.798;2022-12-01T11:49:57;9.10;99.90
7216;DHT22;3649;48.798;9.798;2022-12-01T11:57:44;9.20;99.90
7216;DHT22;3649;48.798;9.798;2022-12-01T12:00:16;9.10;99.90
7216;DHT22;3649;48.798;9.798;2022-12-01T12:05:57;9.10;99.90
7216;DHT22;3649;48.798;9.798;2022-12-01T12:11:31;9.10;99.90
7216;DHT22;3649;48.798;9.798;2022-12-01T12:17:18;9.10;99.90
7216;DHT22;3649;48.798;9.798;2022-12-01T12:36:43;9.30;99.90
7216;DHT22;3649;48.798;9.798;2022-12-01T12:42:11;9.30;99.90
7216;DHT22;3649;48.798;9.798;2022-12-01T12:45:32;9.30;99.90
7216;DHT22;3649;48.798;9.798;2022-12-01T12:53:27;9.30;99.90
7216;DHT22;3649;48.798;9.798;2022-12-01T12:56:00;9.30;99.90
7216;DHT22;3649;48.798;9.798;2022-12-01T12:58:35;9.30;99.90
7216;DHT22;3649;48.798;9.798;2022-12-01T13:01:26;9.30;99.90
7216;DHT22;3649;48.798;9.798;2022-12-01T13:04:09;9.30;99.90
7216;DHT22;3649;48.798;9.798;2022-12-01T13:06:49;9.30;99.90
7216;DHT22;3649;48.798;9.798;2022-12-01T13:09:42;9.30;99.90
7216;DHT22;3649;48.798;9.798;2022-12-01T13:12:31;9.30;99.90
7216;DHT22;3649;48.798;9.798;2022-12-01T13:15:15;9.20;99.90
7216;DHT22;3649;48.798;9.798;2022-12-01T13:17:47;9.20;99.90
7216;DHT22;3649;48.798;9.798;2022-12-01T13:20:16;9.30;99.90
7216;DHT22;3649;48.798;9.798;2022-12-01T13:22:45;9.20;99.90
7216;DHT22;3649;48.798;9.798;2022-12-01T13:25:26;9.20;99.90
7216;DHT22;3649;48.798;9.798;2022-12-01T13:27:57;9.20;99.90
7216;DHT22;3649;48.798;9.798;2022-12-01T13:30:26;9.20;99.90
7216;DHT22;3649;48.798;9.798;2022-12-01T13:33:02;9.30;99.90
7216;DHT22;3649;48.798;9.798;2022-12-01T13:35:35;9.30;99.90
7216;DHT22;3649;48.798;9.798;2022-12-01T13:38:23;9.50;99.90
7216;DHT22;3649;48.798;9.798;2022-12-01T13:43:58;9.60;99.90
7216;DHT22;3649;48.798;9.798;2022-12-01T13:46:31;9.60;99.90
7216;DHT22;3649;48.798;9.798;2022-12-01T13:49:00;9.60;99.90
7216;DHT22;3649;48.798;9.798;2022-12-01T13:57:43;9.50;99.90
7216;DHT22;3649;48.798;9.798;2022-12-01T14:00:31;9.40;99.90
7216;DHT22;3649;48.798;9.798;2022-12-01T14:05:44;9.50;99.90
7216;DHT22;3649;48.798;9.798;2022-12-01T14:11:18;9.50;99.90
7216;DHT22;3649;48.798;9.798;2022-12-01T14:14:08;9.50;99.90
7216;DHT22;3649;48.798;9.798;2022-12-01T14:16:51;9.50;99.90
7216;DHT22;3649;48.798;9.798;2022-12-01T14:19:39;9.50;99.90
7216;DHT22;3649;48.798;9.798;2022-12-01T14:24:58;9.60;99.90
7216;DHT22;3649;48.798;9.798;2022-12-01T14:27:41;9.60;99.90
7216;DHT22;3649;48.798;9.798;2022-12-01T14:33:45;9.70;99.90
7216;DHT22;3649;48.798;9.798;2022-12-01T14:41:24;9.70;99.90
7216;DHT22;3649;48.798;9.798;2022-12-01T14:44:04;9.60;99.90
7216;DHT22;3649;48.798;9.798;2022-12-01T14:46:47;9.50;99.90
7216;DHT22;3649;48.798;9.798;2022-12-01T14:49:29;9.70;99.90
7216;DHT22;3649;48.798;9.798;2022-12-01T14:52:02;9.50;99.90
7216;DHT22;3649;48.798;9.798;2022-12-01T14:54:42;9.60;99.90
7216;DHT22;3649;48.798;9.798;2022-12-01T14:57:12;9.50;99.90
7216;DHT22;3649;48.798;9.798;2022-12-01T14:59:43;9.50;99.90
7216;DHT22;3649;48.798;9.798;2022-12-01T15:02:11;9.60;99.90
7216;DHT22;3649;48.798;9.798;2022-12-01T15:05:04;9.70;99.90
7216;DHT22;3649;48.798;9.798;2022-12-01T15:07:41;9.60;99.90
7216;DHT22;3649;48.798;9.798;2022-12-01T15:16:02;9.70;99.90
7216;DHT22;3649;48.798;9.798;2022-12-01T15:18:34;9.70;99.90
7216;DHT22;3649;48.798;9.798;2022-12-01T15:21:12;9.70;99.90
7216;DHT22;3649;48.798;9.798;2022-12-01T15:24:04;9.60;99.90
7216;DHT22;3649;48.798;9.798;2022-12-01T15:26:35;9.60;99.90
7216;DHT22;3649;48.798;9.798;2022-12-01T15:29:27;9.70;99.90
7216;DHT22;3649;48.798;9.798;2022-12-01T15:34:34;9.60;99.90
7216;DHT22;3649;48.798;9.798;2022-12-01T15:37:03;9.60;99.90
7216;DHT22;3649;48.798;9.798;2022-12-01T15:39:34;9.60;99.90
7216;DHT22;3649;48.798;9.798;2022-12-01T15:42:02;9.50;99.90
7216;DHT22;3649;48.798;9.798;2022-12-01T15:44:32;9.50;99.90
7216;DHT22;3649;48.798;9.798;2022-12-01T15:47:28;9.70;99.90
7216;DHT22;3649;48.798;9.798;2022-12-01T15:49:49;9.60;99.90
7216;DHT22;3649;48.798;9.798;2022-12-01T15:52:16;9.60;99.90
7216;DHT22;3649;48.798;9.798;2022-12-01T15:54:48;9.70;99.90
7216;DHT22;3649;48.798;9.798;2022-12-01T15:57:18;9.70;99.90
7216;DHT22;3649;48.798;9.798;2022-12-01T15:59:54;9.70;99.90
7216;DHT22;3649;48.798;9.798;2022-12-01T16:02:32;9.60;99.90
7216;DHT22;3649;48.798;9.798;2022-12-01T16:07:36;9.60;99.90
7216;DHT22;3649;48.798;9.798;2022-12-01T16:10:32;9.60;99.90
7216;DHT22;3649;48.798;9.798;2022-12-01T16:21:48;9.60;99.90
7216;DHT22;3649;48.798;9.798;2022-12-01T16:24:20;9.60;99.90
7216;DHT22;3649;48.798;9.798;2022-12-01T16:27:05;9.50;99.90
7216;DHT22;3649;48.798;9.798;2022-12-01T16:29:50;9.60;99.90
7216;DHT22;3649;48.798;9.798;2022-12-01T16:32:34;9.60;99.90
7216;DHT22;3649;48.798;9.798;2022-12-01T16:35:02;9.60;99.90
7216;DHT22;3649;48.798;9.798;2022-12-01T16:37:30;9.60;99.90
7216;DHT22;3649;48.798;9.798;2022-12-01T16:39:57;9.70;99.90
7216;DHT22;3649;48.798;9.798;2022-12-01T16:42:24;9.70;99.90
7216;DHT22;3649;48.798;9.798;2022-12-01T16:44:51;9.70;99.90
7216;DHT22;3649;48.798;9.798;2022-12-01T16:47:21;9.60;99.90
7216;DHT22;3649;48.798;9.798;2022-12-01T16:49:50;9.60;99.90
7216;DHT22;3649;48.798;9.798;2022-12-01T16:52:17;9.60;99.90
7216;DHT22;3649;48.798;9.798;2022-12-01T16:57:44;9.50;99.90
7216;DHT22;3649;48.798;9.798;2022-12-01T17:00:12;9.50;99.90
7216;DHT22;3649;48.798;9.798;2022-12-01T17:02:39;9.50;99.90
7216;DHT22;3649;48.798;9.798;2022-12-01T17:05:06;9.50;99.90
7216;DHT22;3649;48.798;9.798;2022-12-01T17:07:33;9.50;99.90
7216;DHT22;3649;48.798;9.798;2022-12-01T17:10:00;9.40;99.90
7216;DHT22;3649;48.798;9.798;2022-12-01T17:12:27;9.40;99.90
7216;DHT22;3649;48.798;9.798;2022-12-01T17:14:54;9.40;99.90
7216;DHT22;3649;48.798;9.798;2022-12-01T17:17:21;9.30;99.90
7216;DHT22;3649;48.798;9.798;2022-12-01T17:19:50;9.30;99.90
7216;DHT22;3649;48.798;9.798;2022-12-01T17:22:18;9.30;99.90
7216;DHT22;3649;48.798;9.798;2022-12-01T17:24:45;9.30;99.90
7216;DHT22;3649;48.798;9.798;2022-12-01T17:27:13;9.20;99.90
7216;DHT22;3649;48.798;9.798;2022-12-01T17:29:39;9.30;99.90
7216;DHT22;3649;48.798;9.798;2022-12-01T17:32:12;9.30;99.90
7216;DHT22;3649;48.798;9.798;2022-12-01T17:34:39;9.30;99.90
7216;DHT22;3649;48.798;9.798;2022-12-01T17:37:06;9.30;99.90
7216;DHT22;3649;48.798;9.798;2022-12-01T17:39:33;9.40;99.90
7216;DHT22;3649;48.798;9.798;2022-12-01T17:42:00;9.40;99.90
7216;DHT22;3649;48.798;9.798;2022-12-01T17:44:27;9.40;99.90
7216;DHT22;3649;48.798;9.798;2022-12-01T17:46:54;9.40;99.90
7216;DHT22;3649;48.798;9.798;2022-12-01T17:49:21;9.50;99.90
7216;DHT22;3649;48.798;9.798;2022-12-01T17:51:48;9.50;99.90
7216;DHT22;3649;48.798;9.798;2022-12-01T17:54:15;9.50;99.90
7216;DHT22;3649;48.798;9.798;2022-12-01T17:56:42;9.60;99.90
7216;DHT22;3649;48.798;9.798;2022-12-01T17:59:09;9.70;99.90
7216;DHT22;3649;48.798;9.798;2022-12-01T18:01:36;9.50;99.90
7216;DHT22;3649;48.798;9.798;2022-12-01T18:04:03;9.50;99.90
7216;DHT22;3649;48.798;9.798;2022-12-01T18:06:30;9.50;99.90
7216;DHT22;3649;48.798;9.798;2022-12-01T18:08:58;9.60;99.90
7216;DHT22;3649;48.798;9.798;2022-12-01T18:11:25;9.50;99.90
7216;DHT22;3649;48.798;9.798;2022-12-01T18:13:52;9.50;99.90
7216;DHT22;3649;48.798;9.798;2022-12-01T18:16:22;9.40;99.90
7216;DHT22;3649;48.798;9.798;2022-12-01T18:18:50;9.40;99.90
7216;DHT22;3649;48.798;9.798;2022-12-01T18:21:19;9.50;99.90
7216;DHT22;3649;48.798;9.798;2022-12-01T18:23:53;9.50;99.90
7216;DHT22;3649;48.798;9.798;2022-12-01T18:26:21;9.50;99.90
7216;DHT22;3649;48.798;9.798;2022-12-01T18:29:17;9.50;99.90
7216;DHT22;3649;48.798;9.798;2022-12-01T18:31:55;9.60;99.90
7216;DHT22;3649;48.798;9.798;2022-12-01T18:34:23;9.50;99.90
7216;DHT22;3649;48.798;9.798;2022-12-01T18:36:50;9.50;99.90
7216;DHT22;3649;48.798;9.798;2022-12-01T18:39:17;9.50;99.90
7216;DHT22;3649;48.798;9.798;2022-12-01T18:41:44;9.50;99.90
7216;DHT22;3649;48.798;9.798;2022-12-01T18:44:11;9.50;99.90
7216;DHT22;3649;48.798;9.798;2022-12-01T18:46:38;9.50;99.90
7216;DHT22;3649;48.798;9.798;2022-12-01T18:49:05;9.60;99.90
7216;DHT22;3649;48.798;9.798;2022-12-01T18:51:36;9.60;99.90
7216;DHT22;3649;48.798;9.798;2022-12-01T18:54:05;9.60;99.90
7216;DHT22;3649;48.798;9.798;2022-12-01T18:56:33;9.60;99.90
7216;DHT22;3649;48.798;9.798;2022-12-01T18:59:05;9.60;99.90
7216;DHT22;3649;48.798;9.798;2022-12-01T19:01:40;9.70;99.90
7216;DHT22;3649;48.798;9.798;2022-12-01T19:04:10;9.70;99.90
7216;DHT22;3649;48.798;9.798;2022-12-01T19:06:39;9.70;99.90
7216;DHT22;3649;48.798;9.798;2022-12-01T19:09:08;9.70;99.90
7216;DHT22;3649;48.798;9.798;2022-12-01T19:11:36;9.70;99.90
7216;DHT22;3649;48.798;9.798;2022-12-01T19:14:03;9.60;99.90
7216;DHT22;3649;48.798;9.798;2022-12-01T19:16:30;9.50;99.90
7216;DHT22;3649;48.798;9.798;2022-12-01T19:18:59;9.60;99.90
7216;DHT22;3649;48.798;9.798;2022-12-01T19:21:26;9.70;99.90
7216;DHT22;3649;48.798;9.798;2022-12-01T19:23:53;9.60;99.90